sensor_id;sensor_type;location;lat;lon;timestamp;pressure;altitude;pressure_sealevel;temperature;humidity
11487;BME280;10510;47.942;9.442;2023-07-13T00:00:35;94850.03;;;16.67;100.00
11487;BME280;10510;47.942;9.442;2023-07-13T00:02:36;94845.00;;;16.66;100.00
11487;BME280;10510;47.942;9.442;2023-07-13T00:04:36;94855.53;;;16.66;100.00
11487;BME280;10510;47.942;9.442;2023-07-13T00:06:36;94859.00;;;16.66;100.00
11487;BME280;10510;47.942;9.442;2023-07-13T00:08:37;94867.72;;;16.67;100.00
11487;BME280;10510;47.942;9.442;2023-07-13T00:10:41;94862.44;;;16.67;100.00
11487;BME280;10510;47.942;9.442;2023-07-13T00:12:42;94863.22;;;16.67;100.00
11487;BME280;10510;47.942;9.442;2023-07-13T00:14:42;94871.97;;;16.68;100.00
11487;BME280;10510;47.942;9.442;2023-07-13T00:16:42;95176.22;;;16.68;100.00
11487;BME280;10510;47.942;9.442;2023-07-13T00:18:44;95171.38;;;16.65;100.00
11487;BME280;10510;47.942;9.442;2023-07-13T00:20:44;95165.47;;;16.63;100.00
11487;BME280;10510;47.942;9.442;2023-07-13T00:22:44;95167.13;;;16.57;100.00
11487;BME280;10510;47.942;9.442;2023-07-13T00:24:45;95161.66;;;16.52;100.00
11487;BME280;10510;47.942;9.442;2023-07-13T00:26:45;95151.91;;;16.46;100.00
11487;BME280;10510;47.942;9.442;2023-07-13T00:28:45;95158.22;;;16.45;100.00
11487;BME280;10510;47.942;9.442;2023-07-13T00:30:46;95156.81;;;16.43;100.00
11487;BME280;10510;47.942;9.442;2023-07-13T00:32:46;95150.13;;;16.40;100.00
11487;BME280;10510;47.942;9.442;2023-07-13T00:34:47;95134.09;;;16.35;100.00
11487;BME280;10510;47.942;9.442;2023-07-13T00:36:47;95136.56;;;16.30;100.00
11487;BME280;10510;47.942;9.442;2023-07-13T00:38:47;95140.41;;;16.27;100.00
11487;BME280;10510;47.942;9.442;2023-07-13T00:40:48;95136.13;;;16.26;100.00
11487;BME280;10510;47.942;9.442;2023-07-13T00:42:52;95137.78;;;16.27;100.00
11487;BME280;10510;47.942;9.442;2023-07-13T00:45:06;95142.63;;;16.30;100.00
11487;BME280;10510;47.942;9.442;2023-07-13T00:47:07;95138.56;;;16.34;100.00
11487;BME280;10510;47.942;9.442;2023-07-13T00:49:12;95146.66;;;16.40;100.00
11487;BME280;10510;47.942;9.442;2023-07-13T00:51:16;95143.19;;;16.46;100.00
11487;BME280;10510;47.942;9.442;2023-07-13T00:53:18;95136.47;;;16.50;100.00
11487;BME280;10510;47.942;9.442;2023-07-13T00:55:20;95136.06;;;16.53;100.00
11487;BME280;10510;47.942;9.442;2023-07-13T00:57:21;95138.50;;;16.54;100.00
11487;BME280;10510;47.942;9.442;2023-07-13T00:59:22;95135.69;;;16.56;100.00
11487;BME280;10510;47.942;9.442;2023-07-13T01:01:22;95127.53;;;16.57;100.00
11487;BME280;10510;47.942;9.442;2023-07-13T01:03:23;95123.06;;;16.58;100.00
11487;BME280;10510;47.942;9.442;2023-07-13T01:05:24;95131.59;;;16.60;100.00
11487;BME280;10510;47.942;9.442;2023-07-13T01:07:25;95125.09;;;16.63;100.00
11487;BME280;10510;47.942;9.442;2023-07-13T01:09:26;95132.78;;;16.64;100.00
11487;BME280;10510;47.942;9.442;2023-07-13T01:11:27;95131.97;;;16.64;100.00
11487;BME280;10510;47.942;9.442;2023-07-13T01:13:28;95125.69;;;16.65;100.00
11487;BME280;10510;47.942;9.442;2023-07-13T01:15:45;95128.72;;;16.68;100.00
11487;BME280;10510;47.942;9.442;2023-07-13T01:17:46;95129.53;;;16.69;100.00
11487;BME280;10510;47.942;9.442;2023-07-13T01:19:46;95129.31;;;16.70;100.00
11487;BME280;10510;47.942;9.442;2023-07-13T01:21:50;95122.00;;;16.72;100.00
11487;BME280;10510;47.942;9.442;2023-07-13T01:23:51;95129.13;;;16.72;100.00
11487;BME280;10510;47.942;9.442;2023-07-13T01:25:52;95119.38;;;16.72;100.00
11487;BME280;10510;47.942;9.442;2023-07-13T01:27:55;95116.53;;;16.74;100.00
11487;BME280;10510;47.942;9.442;2023-07-13T01:29:55;95118.13;;;16.75;100.00
11487;BME280;10510;47.942;9.442;2023-07-13T01:32:02;95124.22;;;16.75;100.00
11487;BME280;10510;47.942;9.442;2023-07-13T01:34:02;95130.34;;;16.76;100.00
11487;BME280;10510;47.942;9.442;2023-07-13T01:36:03;95131.53;;;16.73;100.00
11487;BME280;10510;47.942;9.442;2023-07-13T01:38:04;95133.16;;;16.74;100.00
11487;BME280;10510;47.942;9.442;2023-07-13T01:40:05;95132.78;;;16.71;100.00
11487;BME280;10510;47.942;9.442;2023-07-13T01:42:05;95131.16;;;16.70;100.00
11487;BME280;10510;47.942;9.442;2023-07-13T01:44:06;95124.25;;;16.69;100.00
11487;BME280;10510;47.942;9.442;2023-07-13T01:46:06;95125.06;;;16.69;100.00
11487;BME280;10510;47.942;9.442;2023-07-13T01:48:07;95116.34;;;16.69;100.00
11487;BME280;10510;47.942;9.442;2023-07-13T01:50:07;95129.31;;;16.70;100.00
11487;BME280;10510;47.942;9.442;2023-07-13T01:52:08;95125.28;;;16.68;100.00
11487;BME280;10510;47.942;9.442;2023-07-13T01:54:08;95122.84;;;16.66;100.00
11487;BME280;10510;47.942;9.442;2023-07-13T01:56:08;95117.97;;;16.63;100.00
11487;BME280;10510;47.942;9.442;2023-07-13T01:58:09;95116.97;;;16.64;100.00
11487;BME280;10510;47.942;9.442;2023-07-13T02:00:10;95115.34;;;16.63;100.00
11487;BME280;10510;47.942;9.442;2023-07-13T02:02:10;95107.44;;;16.63;100.00
11487;BME280;10510;47.942;9.442;2023-07-13T02:04:11;95117.75;;;16.65;100.00
11487;BME280;10510;47.942;9.442;2023-07-13T02:06:11;95107.22;;;16.65;100.00
11487;BME280;10510;47.942;9.442;2023-07-13T02:08:11;95104.78;;;16.63;100.00
11487;BME280;10510;47.942;9.442;2023-07-13T02:10:11;95107.44;;;16.63;100.00
11487;BME280;10510;47.942;9.442;2023-07-13T02:12:12;95103.38;;;16.61;100.00
11487;BME280;10510;47.942;9.442;2023-07-13T02:14:12;95095.47;;;16.61;100.00
11487;BME280;10510;47.942;9.442;2023-07-13T02:16:12;95090.41;;;16.59;100.00
11487;BME280;10510;47.942;9.442;2023-07-13T02:18:13;95089.38;;;16.60;100.00
11487;BME280;10510;47.942;9.442;2023-07-13T02:20:17;95092.81;;;16.61;100.00
11487;BME280;10510;47.942;9.442;2023-07-13T02:22:17;95088.34;;;16.61;100.00
11487;BME280;10510;47.942;9.442;2023-07-13T02:24:17;95093.44;;;16.63;100.00
11487;BME280;10510;47.942;9.442;2023-07-13T02:26:19;95096.06;;;16.63;100.00
11487;BME280;10510;47.942;9.442;2023-07-13T02:28:20;95103.38;;;16.61;100.00
11487;BME280;10510;47.942;9.442;2023-07-13T02:30:20;95110.69;;;16.58;100.00
11487;BME280;10510;47.942;9.442;2023-07-13T02:32:21;95110.28;;;16.55;100.00
11487;BME280;10510;47.942;9.442;2023-07-13T02:34:21;95111.75;;;16.51;100.00
11487;BME280;10510;47.942;9.442;2023-07-13T02:36:21;95116.63;;;16.47;100.00
11487;BME280;10510;47.942;9.442;2023-07-13T02:38:21;95116.22;;;16.44;100.00
11487;BME280;10510;47.942;9.442;2023-07-13T02:40:22;95115.81;;;16.40;100.00
11487;BME280;10510;47.942;9.442;2023-07-13T02:42:22;95110.78;;;16.39;100.00
11487;BME280;10510;47.942;9.442;2023-07-13T02:44:23;95116.25;;;16.37;100.00
11487;BME280;10510;47.942;9.442;2023-07-13T02:46:23;95122.31;;;16.38;100.00
11487;BME280;10510;47.942;9.442;2023-07-13T02:48:24;95124.38;;;16.35;100.00
11487;BME280;10510;47.942;9.442;2023-07-13T02:50:24;95129.44;;;16.30;100.00
11487;BME280;10510;47.942;9.442;2023-07-13T02:52:25;95140.22;;;16.22;100.00
11487;BME280;10510;47.942;9.442;2023-07-13T02:54:25;95144.47;;;16.17;100.00
11487;BME280;10510;47.942;9.442;2023-07-13T02:56:27;95144.28;;;16.11;100.00
11487;BME280;10510;47.942;9.442;2023-07-13T02:58:28;95146.53;;;16.08;100.00
11487;BME280;10510;47.942;9.442;2023-07-13T03:00:28;95150.78;;;16.09;100.00
11487;BME280;10510;47.942;9.442;2023-07-13T03:02:30;95148.75;;;16.11;100.00
11487;BME280;10510;47.942;9.442;2023-07-13T03:04:31;95150.97;;;16.14;100.00
11487;BME280;10510;47.942;9.442;2023-07-13T03:06:32;95159.69;;;16.21;100.00
11487;BME280;10510;47.942;9.442;2023-07-13T03:08:33;95159.28;;;16.24;100.00
11487;BME280;10510;47.942;9.442;2023-07-13T03:10:34;95166.59;;;16.22;100.00
11487;BME280;10510;47.942;9.442;2023-07-13T03:12:34;95172.66;;;16.23;100.00
11487;BME280;10510;47.942;9.442;2023-07-13T03:14:34;95172.28;;;16.19;100.00
11487;BME280;10510;47.942;9.442;2023-07-13T03:16:35;95173.06;;;16.20;100.00
11487;BME280;10510;47.942;9.442;2023-07-13T03:18:36;95176.09;;;16.23;100.00
11487;BME280;10510;47.942;9.442;2023-07-13T03:20:36;95181.81;;;16.27;100.00
11487;BME280;10510;47.942;9.442;2023-07-13T03:22:37;95184.03;;;16.30;100.00
11487;BME280;10510;47.942;9.442;2023-07-13T03:24:37;95184.84;;;16.30;100.00
11487;BME280;10510;47.942;9.442;2023-07-13T03:26:37;95182.59;;;16.34;100.00
11487;BME280;10510;47.942;9.442;2023-07-13T03:28:38;95185.03;;;16.35;100.00
11487;BME280;10510;47.942;9.442;2023-07-13T03:30:39;95188.47;;;16.36;100.00
11487;BME280;10510;47.942;9.442;2023-07-13T03:32:39;95184.63;;;16.39;100.00
11487;BME280;10510;47.942;9.442;2023-07-13T03:34:40;95192.31;;;16.40;100.00
11487;BME280;10510;47.942;9.442;2023-07-13T03:36:40;95192.72;;;16.37;100.00
11487;BME280;10510;47.942;9.442;2023-07-13T03:38:40;95200.63;;;16.37;100.00
11487;BME280;10510;47.942;9.442;2023-07-13T03:40:41;95203.09;;;16.39;100.00
11487;BME280;10510;47.942;9.442;2023-07-13T03:42:41;95203.88;;;16.39;100.00
11487;BME280;10510;47.942;9.442;2023-07-13T03:44:42;95202.88;;;16.33;100.00
11487;BME280;10510;47.942;9.442;2023-07-13T03:46:46;95209.56;;;16.29;100.00
11487;BME280;10510;47.942;9.442;2023-07-13T03:48:47;95207.16;;;16.28;100.00
11487;BME280;10510;47.942;9.442;2023-07-13T03:50:47;95212.63;;;16.20;100.00
11487;BME280;10510;47.942;9.442;2023-07-13T03:52:49;95217.28;;;16.11;100.00
11487;BME280;10510;47.942;9.442;2023-07-13T03:54:49;95212.03;;;16.11;100.00
11487;BME280;10510;47.942;9.442;2023-07-13T03:56:49;95219.53;;;16.14;100.00
11487;BME280;10510;47.942;9.442;2023-07-13T03:58:50;95226.22;;;16.17;100.00
11487;BME280;10510;47.942;9.442;2023-07-13T04:00:51;95228.84;;;16.17;100.00
11487;BME280;10510;47.942;9.442;2023-07-13T04:02:51;95230.69;;;16.16;100.00
11487;BME280;10510;47.942;9.442;2023-07-13T04:04:51;95227.81;;;16.18;100.00
11487;BME280;10510;47.942;9.442;2023-07-13T04:06:53;95228.06;;;16.16;100.00
11487;BME280;10510;47.942;9.442;2023-07-13T04:08:56;95231.50;;;16.17;100.00
11487;BME280;10510;47.942;9.442;2023-07-13T04:10:58;95241.81;;;16.11;100.00
11487;BME280;10510;47.942;9.442;2023-07-13T04:12:58;95245.72;;;16.09;100.00
11487;BME280;10510;47.942;9.442;2023-07-13T04:14:59;95247.50;;;16.08;100.00
11487;BME280;10510;47.942;9.442;2023-07-13T04:16:59;95245.50;;;16.04;100.00
11487;BME280;10510;47.942;9.442;2023-07-13T04:19:00;95240.41;;;15.96;100.00
11487;BME280;10510;47.942;9.442;2023-07-13T04:21:00;95238.59;;;15.89;100.00
11487;BME280;10510;47.942;9.442;2023-07-13T04:23:00;95246.28;;;15.78;100.00
11487;BME280;10510;47.942;9.442;2023-07-13T04:25:00;95251.13;;;15.74;100.00
11487;BME280;10510;47.942;9.442;2023-07-13T04:27:01;95248.91;;;15.71;100.00
11487;BME280;10510;47.942;9.442;2023-07-13T04:29:03;95242.97;;;15.62;100.00
11487;BME280;10510;47.942;9.442;2023-07-13T04:31:04;95256.31;;;15.54;100.00
11487;BME280;10510;47.942;9.442;2023-07-13T04:33:04;95251.84;;;15.48;100.00
11487;BME280;10510;47.942;9.442;2023-07-13T04:35:05;95244.53;;;15.43;100.00
11487;BME280;10510;47.942;9.442;2023-07-13T04:37:05;95249.63;;;15.45;100.00
11487;BME280;10510;47.942;9.442;2023-07-13T04:39:06;95252.66;;;15.49;100.00
11487;BME280;10510;47.942;9.442;2023-07-13T04:41:08;95256.09;;;15.49;100.00
11487;BME280;10510;47.942;9.442;2023-07-13T04:43:09;95260.56;;;15.55;100.00
11487;BME280;10510;47.942;9.442;2023-07-13T04:45:09;95264.47;;;15.59;100.00
11487;BME280;10510;47.942;9.442;2023-07-13T04:47:09;95260.22;;;15.65;100.00
11487;BME280;10510;47.942;9.442;2023-07-13T04:49:09;95268.72;;;15.67;100.00
11487;BME280;10510;47.942;9.442;2023-07-13T04:51:10;95259.78;;;15.55;100.00
11487;BME280;10510;47.942;9.442;2023-07-13T04:53:11;95271.69;;;15.44;100.00
11487;BME280;10510;47.942;9.442;2023-07-13T04:55:11;95267.84;;;15.47;100.00
11487;BME280;10510;47.942;9.442;2023-07-13T04:57:12;95275.16;;;15.51;100.00
11487;BME280;10510;47.942;9.442;2023-07-13T04:59:12;95272.72;;;15.50;100.00
11487;BME280;10510;47.942;9.442;2023-07-13T05:01:12;95264.00;;;15.42;100.00
11487;BME280;10510;47.942;9.442;2023-07-13T05:03:13;95262.56;;;15.33;100.00
11487;BME280;10510;47.942;9.442;2023-07-13T05:05:14;95264.78;;;15.30;100.00
11487;BME280;10510;47.942;9.442;2023-07-13T05:07:14;95258.28;;;15.32;100.00
11487;BME280;10510;47.942;9.442;2023-07-13T05:09:14;95257.72;;;15.43;100.00
11487;BME280;10510;47.942;9.442;2023-07-13T05:11:15;95260.78;;;15.54;100.00
11487;BME280;10510;47.942;9.442;2023-07-13T05:13:15;95261.00;;;15.59;100.00
11487;BME280;10510;47.942;9.442;2023-07-13T05:15:15;95265.88;;;15.62;100.00
11487;BME280;10510;47.942;9.442;2023-07-13T05:17:16;95264.66;;;15.64;100.00
11487;BME280;10510;47.942;9.442;2023-07-13T05:19:16;95261.81;;;15.66;100.00
11487;BME280;10510;47.942;9.442;2023-07-13T05:21:16;95276.88;;;15.72;100.00
11487;BME280;10510;47.942;9.442;2023-07-13T05:23:17;95276.47;;;15.75;100.00
11487;BME280;10510;47.942;9.442;2023-07-13T05:25:17;95273.25;;;15.80;100.00
11487;BME280;10510;47.942;9.442;2023-07-13T05:27:17;95284.19;;;15.83;100.00
11487;BME280;10510;47.942;9.442;2023-07-13T05:29:18;95273.25;;;15.86;100.00
11487;BME280;10510;47.942;9.442;2023-07-13T05:31:19;95277.50;;;15.87;100.00
11487;BME280;10510;47.942;9.442;2023-07-13T05:33:19;95276.69;;;15.94;100.00
11487;BME280;10510;47.942;9.442;2023-07-13T05:35:20;95282.41;;;16.04;100.00
11487;BME280;10510;47.942;9.442;2023-07-13T05:37:20;95294.38;;;16.13;100.00
11487;BME280;10510;47.942;9.442;2023-07-13T05:39:20;95296.41;;;16.24;100.00
11487;BME280;10510;47.942;9.442;2023-07-13T05:41:21;95302.47;;;16.31;100.00
11487;BME280;10510;47.942;9.442;2023-07-13T05:43:22;95299.84;;;16.38;100.00
11487;BME280;10510;47.942;9.442;2023-07-13T05:45:22;95301.47;;;16.39;100.00
11487;BME280;10510;47.942;9.442;2023-07-13T05:47:22;95301.66;;;16.38;100.00
11487;BME280;10510;47.942;9.442;2023-07-13T05:49:23;95293.56;;;16.39;100.00
11487;BME280;10510;47.942;9.442;2023-07-13T05:51:23;95299.47;;;16.48;100.00
11487;BME280;10510;47.942;9.442;2023-07-13T05:53:23;95296.00;;;16.54;100.00
11487;BME280;10510;47.942;9.442;2023-07-13T05:55:23;95302.06;;;16.61;100.00
11487;BME280;10510;47.942;9.442;2023-07-13T05:57:24;95308.56;;;16.65;100.00
11487;BME280;10510;47.942;9.442;2023-07-13T05:59:24;95315.47;;;16.66;100.00
11487;BME280;10510;47.942;9.442;2023-07-13T06:01:25;95312.00;;;16.72;100.00
11487;BME280;10510;47.942;9.442;2023-07-13T06:03:25;95312.44;;;16.76;100.00
11487;BME280;10510;47.942;9.442;2023-07-13T06:05:26;95309.59;;;16.77;100.00
11487;BME280;10510;47.942;9.442;2023-07-13T06:07:27;95312.22;;;16.91;100.00
11487;BME280;10510;47.942;9.442;2023-07-13T06:09:27;95312.41;;;16.96;100.00
11487;BME280;10510;47.942;9.442;2023-07-13T06:11:27;95318.47;;;17.10;100.00
11487;BME280;10510;47.942;9.442;2023-07-13T06:13:29;95313.16;;;17.16;100.00
11487;BME280;10510;47.942;9.442;2023-07-13T06:15:30;95313.38;;;17.21;100.00
11487;BME280;10510;47.942;9.442;2023-07-13T06:17:30;95298.72;;;17.25;100.00
11487;BME280;10510;47.942;9.442;2023-07-13T06:19:30;95308.06;;;17.28;100.00
11487;BME280;10510;47.942;9.442;2023-07-13T06:21:31;95295.88;;;17.27;100.00
11487;BME280;10510;47.942;9.442;2023-07-13T06:23:31;95297.72;;;17.20;100.00
11487;BME280;10510;47.942;9.442;2023-07-13T06:25:31;95290.44;;;17.09;100.00
11487;BME280;10510;47.942;9.442;2023-07-13T06:27:31;95292.09;;;16.96;100.00
11487;BME280;10510;47.942;9.442;2023-07-13T06:29:32;95293.13;;;16.95;100.00
11487;BME280;10510;47.942;9.442;2023-07-13T06:31:32;95285.41;;;17.00;100.00
11487;BME280;10510;47.942;9.442;2023-07-13T06:33:32;95289.66;;;17.01;100.00
11487;BME280;10510;47.942;9.442;2023-07-13T06:35:33;95283.75;;;17.06;100.00
11487;BME280;10510;47.942;9.442;2023-07-13T06:37:33;95286.97;;;17.08;100.00
11487;BME280;10510;47.942;9.442;2023-07-13T06:39:34;95295.13;;;17.07;100.00
11487;BME280;10510;47.942;9.442;2023-07-13T06:41:34;95289.84;;;17.07;100.00
11487;BME280;10510;47.942;9.442;2023-07-13T06:43:34;95285.41;;;17.00;100.00
11487;BME280;10510;47.942;9.442;2023-07-13T06:45:40;95283.56;;;17.01;100.00
11487;BME280;10510;47.942;9.442;2023-07-13T06:47:41;95284.38;;;17.01;100.00
11487;BME280;10510;47.942;9.442;2023-07-13T06:49:41;95286.63;;;16.98;100.00
11487;BME280;10510;47.942;9.442;2023-07-13T06:51:41;95278.50;;;16.93;100.00
11487;BME280;10510;47.942;9.442;2023-07-13T06:53:42;95274.84;;;16.94;100.00
11487;BME280;10510;47.942;9.442;2023-07-13T06:55:44;95276.47;;;16.95;100.00
11487;BME280;10510;47.942;9.442;2023-07-13T06:57:45;95272.63;;;16.97;100.00
11487;BME280;10510;47.942;9.442;2023-07-13T06:59:45;95278.47;;;16.99;100.00
11487;BME280;10510;47.942;9.442;2023-07-13T07:01:46;95282.94;;;16.99;100.00
11487;BME280;10510;47.942;9.442;2023-07-13T07:03:46;95287.44;;;16.98;100.00
11487;BME280;10510;47.942;9.442;2023-07-13T07:05:47;95290.69;;;17.00;100.00
11487;BME280;10510;47.942;9.442;2023-07-13T07:07:49;95282.97;;;16.92;100.00
11487;BME280;10510;47.942;9.442;2023-07-13T07:09:49;95270.81;;;16.78;100.00
11487;BME280;10510;47.942;9.442;2023-07-13T07:11:49;95279.94;;;16.75;100.00
11487;BME280;10510;47.942;9.442;2023-07-13T07:13:53;95270.81;;;16.78;100.00
11487;BME280;10510;47.942;9.442;2023-07-13T07:15:54;95274.47;;;16.84;100.00
11487;BME280;10510;47.942;9.442;2023-07-13T07:17:54;95277.91;;;16.97;100.00
11487;BME280;10510;47.942;9.442;2023-07-13T07:19:54;95279.69;;;17.10;100.00
11487;BME280;10510;47.942;9.442;2023-07-13T07:21:54;95282.25;;;17.23;100.00
11487;BME280;10510;47.942;9.442;2023-07-13T07:23:55;95288.91;;;17.39;100.00
11487;BME280;10510;47.942;9.442;2023-07-13T07:25:55;95286.03;;;17.92;100.00
11487;BME280;10510;47.942;9.442;2023-07-13T07:27:55;95294.44;;;18.39;100.00
11487;BME280;10510;47.942;9.442;2023-07-13T07:29:56;95289.03;;;18.53;100.00
11487;BME280;10510;47.942;9.442;2023-07-13T07:31:59;95279.94;;;18.67;100.00
11487;BME280;10510;47.942;9.442;2023-07-13T07:33:59;95280.09;;;18.72;100.00
11487;BME280;10510;47.942;9.442;2023-07-13T07:36:00;95280.34;;;18.71;100.00
11487;BME280;10510;47.942;9.442;2023-07-13T07:38:00;95272.88;;;18.61;100.00
11487;BME280;10510;47.942;9.442;2023-07-13T07:40:01;95265.75;;;18.61;100.00
11487;BME280;10510;47.942;9.442;2023-07-13T07:42:01;95266.63;;;18.55;100.00
11487;BME280;10510;47.942;9.442;2023-07-13T07:44:01;95265.88;;;18.48;100.00
11487;BME280;10510;47.942;9.442;2023-07-13T07:46:02;95267.47;;;18.49;100.00
11487;BME280;10510;47.942;9.442;2023-07-13T07:48:04;95263.25;;;18.67;100.00
11487;BME280;10510;47.942;9.442;2023-07-13T07:50:05;95255.28;;;18.73;100.00
11487;BME280;10510;47.942;9.442;2023-07-13T07:52:06;95260.72;;;18.78;100.00
11487;BME280;10510;47.942;9.442;2023-07-13T07:54:06;95262.00;;;18.69;100.00
11487;BME280;10510;47.942;9.442;2023-07-13T07:56:07;95254.34;;;18.61;100.00
11487;BME280;10510;47.942;9.442;2023-07-13T07:58:07;95241.91;;;18.61;100.00
11487;BME280;10510;47.942;9.442;2023-07-13T08:00:08;95241.28;;;18.66;100.00
11487;BME280;10510;47.942;9.442;2023-07-13T08:02:09;95242.78;;;18.80;100.00
11487;BME280;10510;47.942;9.442;2023-07-13T08:04:10;95240.66;;;18.89;100.00
11487;BME280;10510;47.942;9.442;2023-07-13T08:06:10;95247.88;;;19.00;100.00
11487;BME280;10510;47.942;9.442;2023-07-13T08:08:11;95246.75;;;19.08;100.00
11487;BME280;10510;47.942;9.442;2023-07-13T08:10:11;95251.25;;;19.08;100.00
11487;BME280;10510;47.942;9.442;2023-07-13T08:12:11;95251.13;;;19.21;100.00
11487;BME280;10510;47.942;9.442;2023-07-13T08:14:11;95251.00;;;19.46;100.00
11487;BME280;10510;47.942;9.442;2023-07-13T08:16:12;95246.44;;;19.83;100.00
11487;BME280;10510;47.942;9.442;2023-07-13T08:18:12;95237.50;;;20.08;100.00
11487;BME280;10510;47.942;9.442;2023-07-13T08:20:12;95228.78;;;20.19;100.00
11487;BME280;10510;47.942;9.442;2023-07-13T08:22:13;95228.06;;;20.12;100.00
11487;BME280;10510;47.942;9.442;2023-07-13T08:24:13;95221.03;;;20.29;100.00
11487;BME280;10510;47.942;9.442;2023-07-13T08:26:14;95217.25;;;20.25;100.00
11487;BME280;10510;47.942;9.442;2023-07-13T08:28:14;95206.84;;;20.12;100.00
11487;BME280;10510;47.942;9.442;2023-07-13T08:30:14;95203.72;;;20.03;100.00
11487;BME280;10510;47.942;9.442;2023-07-13T08:32:15;95201.31;;;20.25;100.00
11487;BME280;10510;47.942;9.442;2023-07-13T08:34:15;95197.84;;;20.25;100.00
11487;BME280;10510;47.942;9.442;2023-07-13T08:36:16;95193.47;;;20.30;100.00
11487;BME280;10510;47.942;9.442;2023-07-13T08:38:16;95204.00;;;20.72;100.00
11487;BME280;10510;47.942;9.442;2023-07-13T08:40:19;95207.22;;;20.86;100.00
11487;BME280;10510;47.942;9.442;2023-07-13T08:46:45;95190.56;;;20.32;100.00
11487;BME280;10510;47.942;9.442;2023-07-13T08:48:51;95190.34;;;20.22;100.00
11487;BME280;10510;47.942;9.442;2023-07-13T08:51:02;95190.56;;;20.20;100.00
11487;BME280;10510;47.942;9.442;2023-07-13T08:53:05;95187.38;;;20.18;100.00
11487;BME280;10510;47.942;9.442;2023-07-13T08:55:18;95188.84;;;20.14;100.00
11487;BME280;10510;47.942;9.442;2023-07-13T08:57:26;95185.25;;;20.08;100.00
11487;BME280;10510;47.942;9.442;2023-07-13T08:59:32;95185.13;;;19.91;100.00
11487;BME280;10510;47.942;9.442;2023-07-13T09:04:05;95180.06;;;19.60;100.00
11487;BME280;10510;47.942;9.442;2023-07-13T09:06:11;95173.03;;;19.54;100.00
11487;BME280;10510;47.942;9.442;2023-07-13T09:10:43;95167.38;;;19.62;100.00
11487;BME280;10510;47.942;9.442;2023-07-13T09:15:26;95168.06;;;19.87;100.00
11487;BME280;10510;47.942;9.442;2023-07-13T09:17:41;95173.84;;;19.96;100.00
11487;BME280;10510;47.942;9.442;2023-07-13T09:19:49;95163.47;;;19.94;100.00
11487;BME280;10510;47.942;9.442;2023-07-13T09:21:54;95154.66;;;19.82;100.00
11487;BME280;10510;47.942;9.442;2023-07-13T09:24:00;95155.13;;;19.79;100.00
11487;BME280;10510;47.942;9.442;2023-07-13T09:26:18;95154.31;;;19.79;100.00
11487;BME280;10510;47.942;9.442;2023-07-13T09:28:43;95134.94;;;19.66;100.00
11487;BME280;10510;47.942;9.442;2023-07-13T09:33:13;95137.72;;;19.71;100.00
11487;BME280;10510;47.942;9.442;2023-07-13T09:35:18;95137.72;;;19.83;100.00
11487;BME280;10510;47.942;9.442;2023-07-13T09:37:21;95135.91;;;19.95;100.00
11487;BME280;10510;47.942;9.442;2023-07-13T09:39:48;95136.69;;;20.08;100.00
11487;BME280;10510;47.942;9.442;2023-07-13T09:41:57;95134.31;;;20.18;100.00
11487;BME280;10510;47.942;9.442;2023-07-13T09:44:12;95127.47;;;20.22;100.00
11487;BME280;10510;47.942;9.442;2023-07-13T09:46:21;95127.03;;;20.25;100.00
11487;BME280;10510;47.942;9.442;2023-07-13T09:48:22;95121.56;;;20.43;100.00
11487;BME280;10510;47.942;9.442;2023-07-13T09:50:24;95123.44;;;20.55;100.00
11487;BME280;10510;47.942;9.442;2023-07-13T09:52:26;95125.16;;;20.61;100.00
11487;BME280;10510;47.942;9.442;2023-07-13T09:54:27;95129.31;;;20.57;100.00
11487;BME280;10510;47.942;9.442;2023-07-13T09:56:29;95117.78;;;20.39;100.00
11487;BME280;10510;47.942;9.442;2023-07-13T09:58:34;95115.47;;;20.19;100.00
11487;BME280;10510;47.942;9.442;2023-07-13T10:00:35;95125.16;;;20.14;100.00
11487;BME280;10510;47.942;9.442;2023-07-13T10:02:36;95115.47;;;20.08;100.00
11487;BME280;10510;47.942;9.442;2023-07-13T10:04:36;95113.63;;;19.96;100.00
11487;BME280;10510;47.942;9.442;2023-07-13T10:06:36;95113.63;;;19.85;100.00
11487;BME280;10510;47.942;9.442;2023-07-13T10:08:39;95112.31;;;19.64;100.00
11487;BME280;10510;47.942;9.442;2023-07-13T10:10:39;95107.69;;;19.47;100.00
11487;BME280;10510;47.942;9.442;2023-07-13T10:12:40;95107.44;;;19.49;100.00
11487;BME280;10510;47.942;9.442;2023-07-13T10:14:41;95112.75;;;19.61;100.00
11487;BME280;10510;47.942;9.442;2023-07-13T10:16:44;95112.53;;;19.62;100.00
11487;BME280;10510;47.942;9.442;2023-07-13T10:18:49;95115.81;;;19.76;100.00
11487;BME280;10510;47.942;9.442;2023-07-13T10:20:58;95111.34;;;19.88;100.00
11487;BME280;10510;47.942;9.442;2023-07-13T10:23:05;95113.53;;;20.03;100.00
11487;BME280;10510;47.942;9.442;2023-07-13T10:25:17;95101.53;;;20.12;100.00
11487;BME280;10510;47.942;9.442;2023-07-13T10:27:40;95101.63;;;20.29;100.00
11487;BME280;10510;47.942;9.442;2023-07-13T10:29:48;95098.94;;;20.41;100.00
11487;BME280;10510;47.942;9.442;2023-07-13T10:31:51;95088.91;;;20.43;100.00
11487;BME280;10510;47.942;9.442;2023-07-13T10:33:52;95087.53;;;20.40;100.00
11487;BME280;10510;47.942;9.442;2023-07-13T10:36:51;95086.25;;;20.67;100.00
11487;BME280;10510;47.942;9.442;2023-07-13T10:38:26;95079.59;;;20.93;100.00
11487;BME280;10510;47.942;9.442;2023-07-13T10:40:39;95086.22;;;21.07;100.00
11487;BME280;10510;47.942;9.442;2023-07-13T10:42:45;95088.41;;;21.10;100.00
11487;BME280;10510;47.942;9.442;2023-07-13T10:44:47;95077.25;;;20.96;100.00
11487;BME280;10510;47.942;9.442;2023-07-13T10:46:48;95073.31;;;21.27;100.00
11487;BME280;10510;47.942;9.442;2023-07-13T10:48:52;95065.53;;;21.54;100.00
11487;BME280;10510;47.942;9.442;2023-07-13T10:50:55;95069.19;;;21.65;100.00